Time;durP1;ratioP1;P1;durP2;ratioP2;P2;SDS_P1;SDS_P2;PMS_P1;PMS_P2;Temp;Humidity;BMP_temperature;BMP_pressure;BME280_temperature;BME280_humidity;BME280_pressure;Samples;Min_cycle;Max_cycle;Signal;HPM_P1;HPM_P2
2022/08/14 00:01:04;;;;;;;1.43;1.30;;;26.70;69.70;;;;;;5125289;27;20521;-62
2022/08/14 00:03:41;;;;;;;1.20;1.10;;;26.50;69.30;;;;;;5143103;27;20483;-62
2022/08/14 00:06:12;;;;;;;0.83;0.83;;;26.50;70.30;;;;;;5141013;27;20458;-62
2022/08/14 00:08:59;;;;;;;1.70;1.40;;;26.60;70.00;;;;;;5123349;27;20504;-63
2022/08/14 00:11:30;;;;;;;1.20;1.10;;;26.50;70.20;;;;;;5123495;28;20437;-63
2022/08/14 00:14:02;;;;;;;1.27;1.13;;;26.40;70.90;;;;;;5124766;27;20459;-64
2022/08/14 00:16:32;;;;;;;1.10;1.10;;;26.40;69.90;;;;;;5129426;27;20566;-63
2022/08/14 00:19:14;;;;;;;1.63;1.40;;;26.20;70.40;;;;;;5122772;28;20451;-63
2022/08/14 00:21:50;;;;;;;1.10;1.00;;;26.20;69.60;;;;;;5122072;27;20499;-63
2022/08/14 00:24:23;;;;;;;1.47;1.30;;;26.10;70.20;;;;;;5134408;27;20457;-63
2022/08/14 00:27:00;;;;;;;0.80;0.80;;;26.00;71.60;;;;;;5122982;28;20445;-63
2022/08/14 00:29:32;;;;;;;0.93;0.93;;;25.90;72.00;;;;;;5123972;27;20454;-63
2022/08/14 00:32:12;;;;;;;1.13;1.07;;;25.90;73.40;;;;;;5122351;28;20448;-63
2022/08/14 00:35:04;;;;;;;1.80;1.13;;;26.00;73.20;;;;;;5128687;27;20447;-63
2022/08/14 00:37:40;;;;;;;1.17;1.07;;;26.10;72.40;;;;;;5141734;27;20470;-63
2022/08/14 00:40:21;;;;;;;1.13;1.03;;;25.90;70.40;;;;;;5132660;27;20814;-63
2022/08/14 00:43:04;;;;;;;1.00;1.00;;;25.80;71.30;;;;;;5107542;28;20493;-62
2022/08/14 00:45:35;;;;;;;1.13;1.07;;;25.70;71.70;;;;;;5118927;28;20496;-63
2022/08/14 00:48:06;;;;;;;0.80;0.80;;;25.60;73.80;;;;;;5117325;27;20454;-64
2022/08/14 00:50:37;;;;;;;1.07;1.07;;;25.60;73.80;;;;;;5117912;27;20906;-63
2022/08/14 00:53:09;;;;;;;1.30;1.20;;;25.70;74.20;;;;;;5115905;27;20475;-63
2022/08/14 00:55:46;;;;;;;1.00;0.90;;;25.70;74.80;;;;;;5119434;27;20468;-64
2022/08/14 00:58:32;;;;;;;0.93;0.90;;;25.60;74.60;;;;;;5122054;27;20585;-63
2022/08/14 01:01:08;;;;;;;1.60;0.90;;;25.70;74.70;;;;;;5125455;27;20473;-63
2022/08/14 01:03:41;;;;;;;1.30;1.20;;;25.60;74.60;;;;;;5108056;28;20590;-63
2022/08/14 01:06:15;;;;;;;1.10;1.03;;;25.40;75.70;;;;;;5110849;27;20621;-63
2022/08/14 01:08:49;;;;;;;1.40;1.30;;;25.40;75.20;;;;;;5128558;27;20458;-61
2022/08/14 01:11:30;;;;;;;1.00;0.90;;;25.50;75.70;;;;;;5120483;27;20459;-63
2022/08/14 01:14:05;;;;;;;1.00;0.90;;;25.40;76.20;;;;;;5118177;27;20500;-63
2022/08/14 01:16:56;;;;;;;1.23;1.13;;;25.40;76.60;;;;;;5125811;27;20491;-63
2022/08/14 01:22:29;;;;;;;1.10;0.90;;;25.20;76.30;;;;;;5060798;28;21034;-62
2022/08/14 01:25:00;;;;;;;0.87;0.87;;;24.90;77.30;;;;;;5060555;28;20449;-62
2022/08/14 01:27:34;;;;;;;1.47;1.37;;;24.80;77.80;;;;;;5063520;28;20551;-62
2022/08/14 01:30:26;;;;;;;1.40;1.30;;;24.60;78.80;;;;;;5058757;28;20460;-63
2022/08/14 01:32:57;;;;;;;1.23;1.03;;;24.50;78.70;;;;;;5055838;28;20884;-64
2022/08/14 01:35:28;;;;;;;1.43;1.20;;;24.60;79.70;;;;;;5058787;28;20529;-64
2022/08/14 01:38:21;;;;;;;1.40;1.30;;;24.60;79.10;;;;;;5054922;28;20464;-63
2022/08/14 01:40:55;;;;;;;1.00;0.93;;;24.60;79.40;;;;;;5065991;28;20482;-64
2022/08/14 01:43:29;;;;;;;0.90;0.90;;;24.60;79.20;;;;;;5052313;28;20521;-64
2022/08/14 01:46:10;;;;;;;1.23;1.13;;;24.60;79.10;;;;;;5064908;28;20464;-65
2022/08/14 01:48:56;;;;;;;0.90;0.90;;;24.60;79.40;;;;;;5054842;28;20456;-66
2022/08/14 01:51:30;;;;;;;1.13;1.00;;;24.60;80.20;;;;;;5054652;28;20453;-66
2022/08/14 01:54:08;;;;;;;1.47;1.30;;;24.70;80.10;;;;;;5058219;28;20446;-66
2022/08/14 01:56:43;;;;;;;0.93;0.80;;;24.60;79.90;;;;;;5092250;27;20453;-67
2022/08/14 01:59:31;;;;;;;1.00;1.00;;;24.50;79.70;;;;;;5115758;27;20462;-67
2022/08/14 02:02:12;;;;;;;1.20;1.10;;;24.30;80.00;;;;;;5123107;27;20490;-66
2022/08/14 02:04:48;;;;;;;1.20;1.10;;;24.30;81.60;;;;;;5116824;27;20614;-65
2022/08/14 02:07:26;;;;;;;1.50;1.40;;;24.30;81.70;;;;;;5123459;27;20454;-65
2022/08/14 02:10:20;;;;;;;1.20;1.10;;;24.20;82.00;;;;;;5128898;27;20458;-66
2022/08/14 02:12:56;;;;;;;1.20;1.10;;;24.20;81.60;;;;;;5125094;27;21026;-65
2022/08/14 02:15:28;;;;;;;2.00;1.37;;;24.10;81.50;;;;;;5129286;27;20453;-65
2022/08/14 02:18:00;;;;;;;2.83;2.63;;;24.00;82.00;;;;;;5130404;27;20583;-67
2022/08/14 02:20:32;;;;;;;1.43;1.20;;;24.00;82.10;;;;;;5119077;27;20473;-63
2022/08/14 02:23:05;;;;;;;7.00;6.40;;;23.90;83.10;;;;;;5124096;27;20564;-63
2022/08/14 02:25:39;;;;;;;2.87;2.67;;;23.70;84.00;;;;;;5123730;27;20473;-63
2022/08/14 02:28:09;;;;;;;1.60;1.50;;;23.60;84.60;;;;;;5121088;27;20460;-63
2022/08/14 02:31:01;;;;;;;2.30;2.10;;;23.60;85.20;;;;;;5127666;27;20458;-64
2022/08/14 02:33:38;;;;;;;3.83;3.47;;;23.60;86.90;;;;;;5124083;28;20445;-63
2022/08/14 02:36:11;;;;;;;1.40;1.30;;;23.40;86.50;;;;;;5130160;27;20472;-64
2022/08/14 02:39:01;;;;;;;1.20;1.10;;;23.40;86.60;;;;;;5116466;27;20477;-63
2022/08/14 02:41:34;;;;;;;1.20;1.10;;;23.20;86.90;;;;;;5132111;27;20585;-63
2022/08/14 02:44:13;;;;;;;1.20;1.10;;;23.20;87.40;;;;;;5131747;27;20522;-64
2022/08/14 02:46:58;;;;;;;1.23;1.13;;;23.20;87.50;;;;;;5119020;28;20693;-64
2022/08/14 02:49:30;;;;;;;1.23;1.13;;;23.10;87.90;;;;;;5126018;27;20441;-63
2022/08/14 02:52:06;;;;;;;1.40;1.30;;;23.00;88.50;;;;;;5144299;27;20449;-63
2022/08/14 02:54:57;;;;;;;1.23;1.13;;;22.90;89.20;;;;;;5117864;27;20457;-63
2022/08/14 02:57:30;;;;;;;3.17;1.20;;;22.80;89.90;;;;;;5124384;27;20482;-63
2022/08/14 03:00:12;;;;;;;0.93;0.93;;;22.70;90.40;;;;;;5133359;27;20486;-63
2022/08/14 03:02:49;;;;;;;1.20;1.10;;;22.70;90.40;;;;;;5131536;27;20496;-64
2022/08/14 03:05:30;;;;;;;1.33;1.23;;;22.60;90.60;;;;;;5136640;27;20925;-63
2022/08/14 03:08:09;;;;;;;0.90;0.80;;;22.50;90.70;;;;;;5128752;27;20475;-63
2022/08/14 03:10:45;;;;;;;0.83;0.83;;;22.40;90.70;;;;;;5114863;28;20883;-63
2022/08/14 03:13:21;;;;;;;1.20;1.10;;;22.40;91.00;;;;;;5123211;28;20461;-64
2022/08/14 03:15:52;;;;;;;1.20;1.07;;;22.20;91.30;;;;;;5132534;27;20461;-64
2022/08/14 03:18:27;;;;;;;1.53;1.13;;;22.20;91.60;;;;;;5123560;27;20534;-63
2022/08/14 03:21:03;;;;;;;1.47;1.23;;;22.10;91.90;;;;;;5122735;27;20465;-63
2022/08/14 03:23:35;;;;;;;1.80;1.37;;;22.00;92.20;;;;;;5140743;27;20956;-63
2022/08/14 03:26:09;;;;;;;1.20;1.00;;;22.00;92.60;;;;;;5137936;27;20501;-64
2022/08/14 03:28:50;;;;;;;1.40;1.30;;;21.90;93.00;;;;;;5135179;27;20459;-64
2022/08/14 03:31:22;;;;;;;1.10;1.00;;;21.80;93.10;;;;;;5132114;27;20449;-63
2022/08/14 03:33:57;;;;;;;1.53;1.20;;;21.80;93.50;;;;;;5125430;27;20465;-63
2022/08/14 03:36:31;;;;;;;1.53;1.17;;;21.70;93.70;;;;;;5123047;27;20454;-63
2022/08/14 03:39:22;;;;;;;1.50;1.40;;;21.60;94.00;;;;;;5123467;27;20464;-63
2022/08/14 03:41:57;;;;;;;1.10;1.00;;;21.60;94.20;;;;;;5123079;27;20508;-63
2022/08/14 03:44:34;;;;;;;1.50;1.00;;;21.60;94.70;;;;;;5120660;27;20489;-63
2022/08/14 03:47:25;;;;;;;2.50;1.30;;;21.50;95.00;;;;;;5119653;27;20462;-63
2022/08/14 03:50:15;;;;;;;1.40;1.30;;;21.40;95.20;;;;;;5128738;27;20452;-63
2022/08/14 03:53:01;;;;;;;1.07;0.97;;;21.30;95.60;;;;;;5123256;27;20463;-64
2022/08/14 03:55:32;;;;;;;1.00;0.90;;;21.30;95.90;;;;;;5133263;27;20553;-64
2022/08/14 03:58:03;;;;;;;1.23;1.00;;;21.20;96.20;;;;;;5123796;27;20508;-64
2022/08/14 04:00:36;;;;;;;1.40;1.00;;;21.20;96.50;;;;;;5135322;27;20452;-64
2022/08/14 04:03:14;;;;;;;1.03;0.93;;;21.20;96.50;;;;;;5125217;27;20488;-64
2022/08/14 04:05:53;;;;;;;1.17;1.00;;;21.10;96.70;;;;;;5120974;27;20482;-64
2022/08/14 04:08:24;;;;;;;1.50;1.00;;;21.20;96.80;;;;;;5138386;27;20447;-66
2022/08/14 04:11:01;;;;;;;1.07;1.03;;;21.10;97.20;;;;;;5125463;27;20498;-64
2022/08/14 04:13:40;;;;;;;1.10;1.00;;;21.00;97.40;;;;;;5123112;27;20465;-64
2022/08/14 04:16:16;;;;;;;0.90;0.90;;;21.00;97.70;;;;;;5116583;27;20544;-64
2022/08/14 04:18:49;;;;;;;0.90;0.90;;;20.90;98.10;;;;;;5121668;28;20488;-64
2022/08/14 04:21:27;;;;;;;1.50;1.20;;;20.90;98.30;;;;;;5121186;27;20466;-65
2022/08/14 04:24:00;;;;;;;1.53;1.20;;;20.90;98.60;;;;;;5113388;28;20501;-65
2022/08/14 04:26:35;;;;;;;1.27;1.17;;;20.80;99.00;;;;;;5133200;27;20456;-64
2022/08/14 04:29:12;;;;;;;1.00;0.87;;;20.70;99.50;;;;;;5141928;27;20536;-64
2022/08/14 04:31:49;;;;;;;1.10;1.07;;;20.70;99.90;;;;;;5127303;27;20541;-64
2022/08/14 04:34:40;;;;;;;1.63;0.90;;;20.60;99.90;;;;;;5115744;27;20433;-64
2022/08/14 04:45:47;;;;;;;0.67;0.67;;;20.40;99.90;;;;;;5134144;28;20441;-64
2022/08/14 04:48:22;;;;;;;3.30;1.30;;;20.40;99.90;;;;;;5142247;28;21159;-65
2022/08/14 04:51:14;;;;;;;1.13;1.03;;;20.40;99.90;;;;;;5103384;28;20473;-64
2022/08/14 04:53:47;;;;;;;1.37;1.13;;;20.40;99.90;;;;;;5113420;28;20511;-63
2022/08/14 04:56:23;;;;;;;1.30;1.00;;;20.40;99.90;;;;;;5120965;28;20541;-65
2022/08/14 04:59:05;;;;;;;1.60;1.00;;;20.30;99.90;;;;;;5108673;28;20568;-63
2022/08/14 05:01:43;;;;;;;0.97;0.83;;;20.20;99.90;;;;;;5120429;28;20518;-64
2022/08/14 05:04:23;;;;;;;1.00;1.00;;;20.20;99.90;;;;;;5122334;28;20470;-64
2022/08/14 05:06:55;;;;;;;0.97;0.90;;;20.10;99.90;;;;;;5122471;28;20494;-64
2022/08/14 05:09:26;;;;;;;0.77;0.77;;;20.10;99.90;;;;;;5126088;28;20533;-64
2022/08/14 05:11:59;;;;;;;1.10;0.90;;;20.00;99.90;;;;;;5120445;28;20850;-64
2022/08/14 05:14:50;;;;;;;2.13;1.20;;;19.90;99.90;;;;;;5115749;28;21040;-64
2022/08/14 05:17:25;;;;;;;1.13;0.80;;;19.80;99.90;;;;;;5119797;28;20467;-64
2022/08/14 05:20:14;;;;;;;1.57;1.40;;;19.90;99.90;;;;;;5128246;28;20505;-63
2022/08/14 05:23:06;;;;;;;1.40;1.07;;;19.80;99.90;;;;;;5116303;28;20800;-64
2022/08/14 05:25:41;;;;;;;1.13;1.10;;;19.70;99.90;;;;;;5133013;28;20524;-64
2022/08/14 05:28:17;;;;;;;1.13;1.03;;;19.70;99.90;;;;;;5123060;27;20777;-63
2022/08/14 05:30:50;;;;;;;2.07;1.60;;;19.60;99.90;;;;;;5111328;28;20459;-64
2022/08/14 05:33:24;;;;;;;1.33;1.23;;;19.60;99.90;;;;;;5124233;27;20445;-63
2022/08/14 05:36:00;;;;;;;1.20;1.10;;;19.70;99.90;;;;;;5130206;27;20768;-64
2022/08/14 05:38:34;;;;;;;1.00;0.90;;;19.70;99.90;;;;;;5123501;27;20944;-64
2022/08/14 05:41:05;;;;;;;1.50;1.40;;;19.60;99.90;;;;;;5133853;27;20457;-64
2022/08/14 05:43:37;;;;;;;1.40;1.27;;;19.50;99.90;;;;;;5130169;27;20464;-64
2022/08/14 05:46:12;;;;;;;1.23;1.13;;;19.40;99.90;;;;;;5125746;27;20453;-64
2022/08/14 05:48:44;;;;;;;1.50;1.40;;;19.40;99.90;;;;;;5125436;27;20449;-63
2022/08/14 05:51:17;;;;;;;1.70;1.30;;;19.40;99.90;;;;;;5115359;27;20474;-63
2022/08/14 05:53:48;;;;;;;1.73;1.27;;;19.30;99.90;;;;;;5118137;27;20507;-63
2022/08/14 05:56:39;;;;;;;1.20;1.00;;;19.30;99.90;;;;;;5116610;27;20454;-63
2022/08/14 05:59:11;;;;;;;1.60;1.50;;;19.20;99.90;;;;;;5121044;27;20550;-63
2022/08/14 06:01:45;;;;;;;1.20;1.10;;;19.10;99.90;;;;;;5119616;27;20485;-64
2022/08/14 06:04:20;;;;;;;3.17;1.67;;;19.10;99.90;;;;;;5117282;27;20504;-64
2022/08/14 06:06:52;;;;;;;1.43;1.33;;;19.10;99.90;;;;;;5108164;27;20451;-63
2022/08/14 06:09:26;;;;;;;1.53;1.43;;;19.10;99.90;;;;;;5134411;27;20875;-63
2022/08/14 06:12:04;;;;;;;1.20;1.10;;;19.10;99.90;;;;;;5117620;28;20472;-64
2022/08/14 06:14:35;;;;;;;1.50;1.37;;;19.00;99.90;;;;;;5122420;27;20797;-64
2022/08/14 06:17:07;;;;;;;1.73;1.53;;;19.00;99.90;;;;;;5133026;27;20494;-63
2022/08/14 06:19:44;;;;;;;1.50;1.23;;;19.10;99.90;;;;;;5111548;27;20874;-63
2022/08/14 06:22:19;;;;;;;2.20;1.47;;;19.10;99.90;;;;;;5119101;27;20538;-63
2022/08/14 06:24:50;;;;;;;2.37;1.80;;;19.00;99.90;;;;;;5122298;27;20464;-63
2022/08/14 06:27:22;;;;;;;1.57;1.47;;;18.90;99.90;;;;;;5135087;27;20588;-64
2022/08/14 06:30:02;;;;;;;1.63;1.40;;;18.90;99.90;;;;;;5116142;28;20572;-63
2022/08/14 06:32:35;;;;;;;1.20;1.10;;;18.80;99.90;;;;;;5119378;27;20463;-63
2022/08/14 06:35:13;;;;;;;1.20;1.10;;;18.70;99.90;;;;;;5128925;27;20551;-63
2022/08/14 06:37:47;;;;;;;1.30;1.10;;;18.70;99.90;;;;;;5129426;27;20509;-63
2022/08/14 06:40:21;;;;;;;2.93;1.20;;;18.60;99.90;;;;;;5112994;28;20454;-63
2022/08/14 06:42:58;;;;;;;1.80;1.40;;;18.50;99.90;;;;;;5122139;28;20432;-63
2022/08/14 06:45:32;;;;;;;1.60;1.37;;;18.50;99.90;;;;;;5129639;27;20497;-62
2022/08/14 06:48:05;;;;;;;1.70;1.30;;;18.50;99.90;;;;;;5133348;27;20454;-63
2022/08/14 06:50:42;;;;;;;1.60;1.50;;;18.40;99.90;;;;;;5120542;27;20537;-63
2022/08/14 06:53:18;;;;;;;1.60;1.50;;;18.40;99.90;;;;;;5119700;27;20453;-63
2022/08/14 06:55:50;;;;;;;2.20;2.00;;;18.50;99.90;;;;;;5134059;27;20445;-63
2022/08/14 06:58:30;;;;;;;2.40;1.40;;;18.40;99.90;;;;;;5122749;27;20440;-63
2022/08/14 07:06:55;;;;;;;1.50;1.40;;;18.10;99.90;;;;;;5127622;27;20433;-63
2022/08/14 07:09:31;;;;;;;2.40;1.93;;;18.10;99.90;;;;;;5117782;27;21015;-63
2022/08/14 07:12:19;;;;;;;1.37;1.20;;;18.00;99.90;;;;;;5113743;28;20553;-63
2022/08/14 07:15:11;;;;;;;4.23;1.50;;;18.10;99.90;;;;;;5124581;27;20428;-63
2022/08/14 07:17:46;;;;;;;1.60;1.50;;;18.10;99.90;;;;;;5106487;27;20436;-64
2022/08/14 07:20:22;;;;;;;1.53;1.30;;;18.00;99.90;;;;;;5117380;27;20896;-63
2022/08/14 07:23:01;;;;;;;2.30;1.43;;;18.00;99.90;;;;;;5108648;27;20543;-63
2022/08/14 07:25:41;;;;;;;1.83;1.57;;;17.90;99.90;;;;;;5125414;27;21417;-63
2022/08/14 07:28:14;;;;;;;2.30;1.50;;;17.90;99.90;;;;;;5122829;27;20454;-63
2022/08/14 07:30:50;;;;;;;3.60;1.43;;;17.80;99.90;;;;;;5131370;27;20428;-63
2022/08/14 07:33:21;;;;;;;1.93;1.63;;;17.80;99.90;;;;;;5107967;28;20431;-63
2022/08/14 07:35:59;;;;;;;1.60;1.50;;;17.80;99.90;;;;;;5117328;27;20458;-63
2022/08/14 07:38:30;;;;;;;1.63;1.33;;;17.80;99.90;;;;;;5117070;27;20428;-63
2022/08/14 07:41:10;;;;;;;1.93;1.40;;;17.70;99.90;;;;;;5123753;27;20432;-63
2022/08/14 07:43:44;;;;;;;2.10;1.87;;;17.70;99.90;;;;;;5131137;27;20486;-63
2022/08/14 07:46:21;;;;;;;1.53;1.43;;;17.70;99.90;;;;;;5125989;27;20478;-63
2022/08/14 07:48:58;;;;;;;1.97;1.83;;;17.70;99.90;;;;;;5126909;27;20480;-63
2022/08/14 07:51:29;;;;;;;2.00;1.50;;;17.70;99.90;;;;;;5115982;27;20451;-63
2022/08/14 07:54:07;;;;;;;1.37;1.20;;;17.70;99.90;;;;;;5130893;27;20942;-63
2022/08/14 07:56:42;;;;;;;1.80;1.70;;;17.60;99.90;;;;;;5127559;27;20428;-63
2022/08/14 07:59:20;;;;;;;1.67;1.50;;;17.60;99.90;;;;;;5128439;27;20466;-63
2022/08/14 08:02:12;;;;;;;1.43;1.33;;;17.60;99.90;;;;;;5119560;27;20549;-63
2022/08/14 08:04:49;;;;;;;1.60;1.40;;;17.50;99.90;;;;;;5136714;27;20484;-63
2022/08/14 08:07:25;;;;;;;1.67;1.50;;;17.50;99.90;;;;;;5126090;27;20452;-63
2022/08/14 08:10:00;;;;;;;3.07;2.00;;;17.50;99.90;;;;;;5125817;27;20460;-64
2022/08/14 08:12:34;;;;;;;1.63;1.47;;;17.50;99.90;;;;;;5120650;27;20504;-64
2022/08/14 08:15:05;;;;;;;1.97;1.47;;;17.40;99.90;;;;;;5135577;27;20584;-63
2022/08/14 08:17:40;;;;;;;2.40;1.60;;;17.40;99.90;;;;;;5123055;27;20448;-64
2022/08/14 08:20:25;;;;;;;1.53;1.30;;;17.30;99.90;;;;;;5129737;27;20523;-64
2022/08/14 08:22:59;;;;;;;1.90;1.70;;;17.20;99.90;;;;;;5122925;27;20439;-64
2022/08/14 08:25:37;;;;;;;1.90;1.70;;;17.10;99.90;;;;;;5113855;28;20463;-64
2022/08/14 08:28:13;;;;;;;1.60;1.50;;;17.20;99.90;;;;;;5121058;28;20464;-64
2022/08/14 08:30:55;;;;;;;1.50;1.40;;;17.10;99.90;;;;;;5119855;28;20441;-64
2022/08/14 08:33:31;;;;;;;1.30;1.20;;;17.10;99.90;;;;;;5134864;27;20471;-64
2022/08/14 08:36:07;;;;;;;1.43;1.33;;;17.00;99.90;;;;;;5116733;27;20459;-64
2022/08/14 08:38:49;;;;;;;2.53;1.50;;;17.00;99.90;;;;;;5126733;27;20517;-63
2022/08/14 08:41:45;;;;;;;1.80;1.70;;;17.00;99.90;;;;;;5119533;28;20841;-64
2022/08/14 08:44:21;;;;;;;2.17;1.50;;;17.00;99.90;;;;;;5129377;28;20460;-64
2022/08/14 08:47:04;;;;;;;1.97;1.80;;;17.00;99.90;;;;;;5116669;28;20471;-64
2022/08/14 08:49:43;;;;;;;2.30;1.77;;;16.90;99.90;;;;;;5121096;28;20429;-64
2022/08/14 08:52:29;;;;;;;1.90;1.40;;;16.90;99.90;;;;;;5119350;28;20513;-64
2022/08/14 08:55:01;;;;;;;1.80;1.70;;;16.90;99.90;;;;;;5122182;28;20432;-64
2022/08/14 08:57:36;;;;;;;2.37;1.80;;;16.80;99.90;;;;;;5128539;28;20449;-64
2022/08/14 09:00:17;;;;;;;1.67;1.40;;;16.80;99.90;;;;;;5125426;28;20801;-63
2022/08/14 09:02:56;;;;;;;1.80;1.60;;;16.70;99.90;;;;;;5116950;28;20523;-64
2022/08/14 09:05:27;;;;;;;2.30;1.93;;;16.70;99.90;;;;;;5131156;27;20459;-64
2022/08/14 09:08:16;;;;;;;1.40;1.23;;;16.70;99.90;;;;;;5125109;27;20458;-63
2022/08/14 09:11:02;;;;;;;2.03;1.50;;;16.60;99.90;;;;;;5122303;28;20428;-63
2022/08/14 09:13:52;;;;;;;2.30;2.10;;;16.60;99.90;;;;;;5137689;27;20456;-63
2022/08/14 09:16:25;;;;;;;2.00;1.23;;;16.50;99.90;;;;;;5140071;27;20454;-63
2022/08/14 09:18:56;;;;;;;2.10;1.77;;;16.50;99.90;;;;;;5141288;27;20921;-63
2022/08/14 09:21:28;;;;;;;1.90;1.80;;;16.50;99.90;;;;;;5134631;27;20447;-63
2022/08/14 09:24:01;;;;;;;2.17;1.60;;;16.40;99.90;;;;;;5139606;27;20463;-63
2022/08/14 09:26:52;;;;;;;2.17;1.97;;;16.30;99.90;;;;;;5108661;27;20486;-63
2022/08/14 09:29:23;;;;;;;1.57;1.47;;;16.30;99.90;;;;;;5136806;27;20464;-63
2022/08/14 09:32:03;;;;;;;1.70;1.60;;;16.30;99.90;;;;;;5124963;27;20460;-63
2022/08/14 09:35:03;;;;;;;1.50;1.40;;;16.30;99.90;;;;;;5131792;27;20467;-63
2022/08/14 09:37:45;;;;;;;1.83;1.40;;;16.30;99.90;;;;;;5129799;27;20548;-63
2022/08/14 09:40:28;;;;;;;1.77;1.50;;;16.20;99.90;;;;;;5122627;27;20464;-63
2022/08/14 09:43:09;;;;;;;1.90;1.80;;;16.20;99.90;;;;;;5137874;27;20449;-63
2022/08/14 09:45:47;;;;;;;1.97;1.50;;;16.20;99.90;;;;;;5117258;27;20459;-62
2022/08/14 09:48:25;;;;;;;1.90;1.70;;;16.20;99.90;;;;;;5131956;27;20446;-63
2022/08/14 09:51:01;;;;;;;2.00;1.53;;;16.20;99.90;;;;;;5140515;27;20461;-63
2022/08/14 09:53:40;;;;;;;2.20;1.70;;;16.20;99.90;;;;;;5123318;27;20497;-63
2022/08/14 09:56:44;;;;;;;2.80;1.87;;;16.10;99.90;;;;;;5122417;28;20960;-63
2022/08/14 09:59:26;;;;;;;1.60;1.40;;;16.10;99.90;;;;;;5119045;27;20468;-63
2022/08/14 10:02:05;;;;;;;1.47;1.37;;;16.10;99.90;;;;;;5125417;27;20454;-63
2022/08/14 10:04:40;;;;;;;1.60;1.40;;;16.00;99.90;;;;;;5126042;27;20810;-63
2022/08/14 10:07:19;;;;;;;2.30;2.00;;;16.00;99.90;;;;;;5135102;27;20494;-62
2022/08/14 10:09:51;;;;;;;2.27;1.40;;;16.00;99.90;;;;;;5132205;27;20528;-63
2022/08/14 10:12:44;;;;;;;2.10;1.80;;;16.00;99.90;;;;;;5124938;27;20460;-63
2022/08/14 10:15:20;;;;;;;1.53;1.43;;;15.90;99.90;;;;;;5120643;27;20489;-63
2022/08/14 10:18:08;;;;;;;1.67;1.27;;;15.90;99.90;;;;;;5113859;28;20450;-63
2022/08/14 10:20:56;;;;;;;2.70;1.47;;;15.90;99.90;;;;;;5116334;27;20571;-63
2022/08/14 10:23:29;;;;;;;2.27;2.07;;;15.90;99.90;;;;;;5129580;27;20491;-63
2022/08/14 10:26:07;;;;;;;1.70;1.60;;;15.80;99.90;;;;;;5123917;28;20764;-61
2022/08/14 10:28:55;;;;;;;2.87;1.87;;;15.80;99.90;;;;;;5136986;27;20429;-63
2022/08/14 10:31:45;;;;;;;1.90;1.47;;;15.70;99.90;;;;;;5131553;27;20453;-63
2022/08/14 10:34:21;;;;;;;2.20;1.80;;;15.70;99.90;;;;;;5127968;27;20483;-63
2022/08/14 10:37:09;;;;;;;1.77;1.67;;;15.70;99.90;;;;;;5134026;27;20949;-63
2022/08/14 10:39:44;;;;;;;2.07;1.70;;;15.60;99.90;;;;;;5124137;27;20440;-62
2022/08/14 10:42:38;;;;;;;2.13;1.77;;;15.60;99.90;;;;;;5142796;27;20784;-62
2022/08/14 10:45:23;;;;;;;1.40;1.30;;;15.60;99.90;;;;;;5117777;27;20479;-62
2022/08/14 10:47:54;;;;;;;1.83;1.73;;;15.60;99.90;;;;;;5124479;27;20472;-62
2022/08/14 10:50:50;;;;;;;1.67;1.57;;;15.60;99.90;;;;;;5133281;27;20457;-62
2022/08/14 10:53:36;;;;;;;2.10;1.80;;;15.60;99.90;;;;;;5125257;27;20438;-62
2022/08/14 10:56:12;;;;;;;1.63;1.43;;;15.60;99.90;;;;;;5124345;28;20460;-62
2022/08/14 10:59:03;;;;;;;1.90;1.70;;;15.50;99.90;;;;;;5129859;27;20450;-62
2022/08/14 11:01:38;;;;;;;2.20;1.77;;;15.40;99.90;;;;;;5115040;27;20436;-62
2022/08/14 11:04:24;;;;;;;2.30;1.80;;;15.40;99.90;;;;;;5123438;27;20473;-62
2022/08/14 11:06:57;;;;;;;1.93;1.73;;;15.40;99.90;;;;;;5116925;27;20479;-62
2022/08/14 11:09:30;;;;;;;2.50;1.53;;;15.40;99.90;;;;;;5125744;27;20448;-62
2022/08/14 11:12:02;;;;;;;2.20;1.70;;;15.40;99.90;;;;;;5125189;27;20476;-62
2022/08/14 11:14:55;;;;;;;2.60;1.93;;;15.40;99.90;;;;;;5118666;27;20432;-62
2022/08/14 11:17:32;;;;;;;3.37;1.90;;;15.30;99.90;;;;;;5120411;27;20429;-62
2022/08/14 11:20:05;;;;;;;2.10;1.90;;;15.30;99.90;;;;;;5126423;27;21195;-62
2022/08/14 11:22:45;;;;;;;2.73;2.07;;;15.30;99.90;;;;;;5118540;27;20473;-62
2022/08/14 11:25:31;;;;;;;1.43;1.30;;;15.20;99.90;;;;;;5112382;27;20521;-62
2022/08/14 11:28:24;;;;;;;1.97;1.77;;;15.20;99.90;;;;;;5113001;27;20523;-62
2022/08/14 11:31:16;;;;;;;2.30;2.10;;;15.20;99.90;;;;;;5136844;27;20454;-62
2022/08/14 11:33:53;;;;;;;2.00;1.50;;;15.10;99.90;;;;;;5139373;27;20823;-63
2022/08/14 11:36:27;;;;;;;1.60;1.43;;;15.10;99.90;;;;;;5107026;28;20432;-63
2022/08/14 11:39:22;;;;;;;1.87;1.27;;;15.10;99.90;;;;;;5119402;27;20450;-63
2022/08/14 11:42:08;;;;;;;1.50;1.40;;;15.10;99.90;;;;;;5125604;27;20561;-62
2022/08/14 11:45:04;;;;;;;2.70;1.77;;;15.10;99.90;;;;;;5117918;27;20451;-62
2022/08/14 11:47:46;;;;;;;2.60;1.90;;;15.00;99.90;;;;;;5132855;27;20491;-62
2022/08/14 11:50:37;;;;;;;2.83;1.80;;;15.00;99.90;;;;;;5129011;27;20517;-62
2022/08/14 11:53:20;;;;;;;1.97;1.77;;;15.00;99.90;;;;;;5125435;27;20483;-63
2022/08/14 11:55:57;;;;;;;3.30;2.07;;;14.90;99.90;;;;;;5122453;28;20439;-63
2022/08/14 11:58:31;;;;;;;1.80;1.50;;;14.90;99.90;;;;;;5103270;27;20573;-63
2022/08/14 12:01:05;;;;;;;1.70;1.57;;;14.90;99.90;;;;;;5108572;27;20528;-63
2022/08/14 12:03:40;;;;;;;1.97;1.77;;;14.90;99.90;;;;;;5134788;27;20807;-63
2022/08/14 12:06:22;;;;;;;3.80;1.40;;;14.90;99.90;;;;;;5115966;28;20493;-63
2022/08/14 12:09:08;;;;;;;2.90;1.60;;;14.80;99.90;;;;;;5130428;27;20443;-63
2022/08/14 12:11:46;;;;;;;2.13;1.70;;;14.90;99.90;;;;;;5128203;27;20464;-63
2022/08/14 12:14:22;;;;;;;1.90;1.70;;;14.80;99.90;;;;;;5131919;27;20518;-62
2022/08/14 12:17:06;;;;;;;2.93;2.10;;;14.80;99.90;;;;;;5116516;28;20443;-63
2022/08/14 12:19:49;;;;;;;1.93;1.63;;;14.80;99.90;;;;;;5124191;27;20443;-63
2022/08/14 12:22:36;;;;;;;1.67;1.43;;;14.80;99.90;;;;;;5121665;27;20435;-62
2022/08/14 12:25:10;;;;;;;2.40;1.70;;;14.70;99.90;;;;;;5126922;27;20440;-63
2022/08/14 12:27:43;;;;;;;1.77;1.53;;;14.60;99.90;;;;;;5125296;27;20498;-63
2022/08/14 12:30:34;;;;;;;1.67;1.57;;;14.60;99.90;;;;;;5126578;27;20434;-62
2022/08/14 12:33:24;;;;;;;1.77;1.43;;;14.50;99.90;;;;;;5121828;28;20579;-62
2022/08/14 12:36:04;;;;;;;3.67;2.77;;;14.50;99.90;;;;;;5124496;27;20465;-63
2022/08/14 12:38:37;;;;;;;2.33;1.90;;;14.50;99.90;;;;;;5125353;27;20464;-63
2022/08/14 12:41:15;;;;;;;3.13;1.80;;;14.60;99.90;;;;;;5106942;27;20898;-63
2022/08/14 12:43:53;;;;;;;1.50;1.37;;;14.50;99.90;;;;;;5111179;28;20440;-63
2022/08/14 12:46:28;;;;;;;2.07;1.60;;;14.50;99.90;;;;;;5121120;28;20480;-63
2022/08/14 12:49:05;;;;;;;1.70;1.50;;;14.50;99.90;;;;;;5118770;28;20460;-63
2022/08/14 12:51:36;;;;;;;1.97;1.80;;;14.40;99.90;;;;;;5128189;27;20467;-63
2022/08/14 12:54:16;;;;;;;2.60;2.10;;;14.50;99.90;;;;;;5120252;28;20465;-63
2022/08/14 12:57:06;;;;;;;2.07;1.87;;;14.40;99.90;;;;;;5107485;28;20489;-64
2022/08/14 12:59:39;;;;;;;2.33;1.90;;;14.40;99.90;;;;;;5122534;28;20506;-63
2022/08/14 13:02:24;;;;;;;2.50;2.30;;;14.40;99.90;;;;;;5121746;28;20548;-63
2022/08/14 13:04:57;;;;;;;2.40;2.20;;;14.40;99.90;;;;;;5121033;28;20493;-64
2022/08/14 13:07:29;;;;;;;2.33;1.97;;;14.30;99.90;;;;;;5107859;28;20822;-63
2022/08/14 13:10:02;;;;;;;2.40;1.70;;;14.30;99.90;;;;;;5121037;28;20490;-63
2022/08/14 13:12:57;;;;;;;1.70;1.60;;;14.30;99.90;;;;;;5111670;28;21296;-64
2022/08/14 13:15:45;;;;;;;1.80;1.60;;;14.30;99.90;;;;;;5127480;28;20434;-63
2022/08/14 13:18:27;;;;;;;2.97;2.23;;;14.30;99.90;;;;;;5120446;28;20489;-63
2022/08/14 13:21:01;;;;;;;1.87;1.60;;;14.30;99.90;;;;;;5117439;28;20591;-63
2022/08/14 13:23:35;;;;;;;3.27;1.90;;;14.30;99.90;;;;;;5120976;28;20469;-64
2022/08/14 13:26:08;;;;;;;1.77;1.60;;;14.30;99.90;;;;;;5122133;28;20434;-63
2022/08/14 13:28:43;;;;;;;4.87;2.00;;;14.30;99.90;;;;;;5122730;28;20481;-63
2022/08/14 13:31:35;;;;;;;2.53;1.70;;;14.30;99.90;;;;;;5119087;28;20484;-64
2022/08/14 13:34:14;;;;;;;2.20;1.80;;;14.30;99.90;;;;;;5113792;28;20508;-64
2022/08/14 13:36:45;;;;;;;2.60;1.90;;;14.30;99.90;;;;;;5121349;28;20453;-64
2022/08/14 13:39:28;;;;;;;2.50;1.70;;;14.30;99.90;;;;;;5125215;27;20452;-63
2022/08/14 13:42:10;;;;;;;2.13;1.80;;;14.30;99.90;;;;;;5124423;27;20535;-63
2022/08/14 13:44:45;;;;;;;2.10;1.83;;;14.40;99.90;;;;;;5126497;28;20462;-63
2022/08/14 13:47:18;;;;;;;1.97;1.60;;;14.30;99.90;;;;;;5111736;28;20425;-63
2022/08/14 13:49:52;;;;;;;1.80;1.70;;;14.40;99.90;;;;;;5129077;27;20512;-63
2022/08/14 13:52:30;;;;;;;1.87;1.67;;;14.40;99.90;;;;;;5114636;28;20552;-63
2022/08/14 13:55:23;;;;;;;8.00;2.00;;;14.40;99.90;;;;;;5114209;28;20461;-63
2022/08/14 13:58:01;;;;;;;3.17;1.90;;;14.50;99.90;;;;;;5133842;27;20536;-63
2022/08/14 14:00:35;;;;;;;2.53;1.97;;;14.50;99.90;;;;;;5123728;27;20423;-63
2022/08/14 14:03:26;;;;;;;2.13;1.93;;;14.50;99.90;;;;;;5120818;27;20485;-63